createdAt,value
2023-01-04T00:01:13.547Z,5.84
2023-01-04T00:03:41.065Z,5.82
2023-01-04T00:06:11.858Z,5.78
2023-01-04T00:08:39.091Z,5.77
2023-01-04T00:11:26.174Z,5.78
2023-01-04T00:13:57.538Z,5.74
2023-01-04T00:16:26.792Z,5.73
2023-01-04T00:18:54.926Z,5.69
2023-01-04T00:21:28.684Z,5.65
2023-01-04T00:23:59.010Z,5.67
2023-01-04T00:26:29.733Z,5.64
2023-01-04T00:29:06.660Z,5.64
2023-01-04T00:31:35.022Z,5.62
2023-01-04T00:34:04.476Z,5.62
2023-01-04T00:36:32.372Z,5.60
2023-01-04T00:39:10.467Z,5.53
2023-01-04T00:44:28.534Z,5.48
2023-01-04T00:46:55.588Z,5.45
2023-01-04T00:49:22.422Z,5.44
2023-01-04T00:51:49.349Z,5.28
2023-01-04T00:54:16.608Z,5.44
2023-01-04T00:56:43.657Z,5.41
2023-01-04T00:59:13.554Z,5.38
2023-01-04T01:01:42.018Z,5.34
2023-01-04T01:04:15.359Z,5.31
2023-01-04T01:06:42.443Z,5.31
2023-01-04T01:09:09.918Z,5.28
2023-01-04T01:11:38.302Z,5.28
2023-01-04T01:14:06.208Z,5.27
2023-01-04T01:19:20.069Z,5.21
2023-01-04T01:21:46.862Z,5.19
2023-01-04T01:24:19.279Z,5.19
2023-01-04T01:26:46.423Z,5.16
2023-01-04T01:29:13.342Z,5.16
2023-01-04T01:31:41.226Z,5.13
2023-01-04T01:34:08.789Z,5.08
2023-01-04T01:36:36.424Z,5.03
2023-01-04T01:39:03.928Z,5.11
2023-01-04T01:41:33.351Z,5.11
2023-01-04T01:44:07.056Z,5.10
2023-01-04T01:46:45.603Z,5.09
2023-01-04T01:49:31.925Z,5.09
2023-01-04T01:52:02.918Z,5.07
2023-01-04T01:54:35.915Z,5.07
2023-01-04T01:57:06.342Z,5.03
2023-01-04T01:59:35.605Z,4.92
2023-01-04T02:02:02.773Z,5.05
2023-01-04T02:04:30.811Z,5.07
2023-01-04T02:06:58.840Z,5.08
2023-01-04T02:09:25.937Z,5.07
2023-01-04T02:11:52.914Z,5.02
2023-01-04T02:14:26.977Z,4.99
2023-01-04T02:16:59.820Z,4.99
2023-01-04T02:20:41.022Z,4.95
2023-01-04T02:23:57.899Z,4.90
2023-01-04T02:26:42.535Z,4.86
2023-01-04T02:29:41.838Z,4.84
2023-01-04T02:32:45.500Z,4.83
2023-01-04T02:35:32.330Z,4.83
2023-01-04T02:38:10.474Z,4.79
2023-01-04T02:41:13.938Z,4.77
2023-01-04T02:44:17.242Z,4.74
2023-01-04T02:46:51.265Z,4.76
2023-01-04T02:49:36.435Z,4.78
2023-01-04T02:52:03.298Z,4.77
2023-01-04T02:54:32.447Z,4.77
2023-01-04T02:57:24.670Z,4.72
2023-01-04T03:00:12.317Z,4.67
2023-01-04T03:03:24.127Z,4.69
2023-01-04T03:06:15.107Z,4.68
2023-01-04T03:08:49.633Z,4.67
2023-01-04T03:11:37.360Z,4.70
2023-01-04T03:14:31.479Z,4.71
2023-01-04T03:17:04.552Z,4.69
2023-01-04T03:19:51.962Z,4.70
2023-01-04T03:22:48.976Z,4.67
2023-01-04T03:25:38.319Z,4.66
2023-01-04T03:28:25.632Z,4.65
2023-01-04T03:31:31.623Z,4.63
2023-01-04T03:34:16.755Z,4.63
2023-01-04T03:37:18.984Z,4.63
2023-01-04T03:40:44.173Z,4.65
2023-01-04T03:43:39.824Z,4.65
2023-01-04T03:46:46.968Z,4.68
2023-01-04T03:49:31.555Z,4.70
2023-01-04T03:52:03.696Z,4.61
2023-01-04T03:54:36.844Z,4.63
2023-01-04T03:57:05.702Z,4.64
2023-01-04T03:59:41.389Z,4.62
2023-01-04T04:02:13.875Z,4.64
2023-01-04T04:05:00.445Z,4.64
2023-01-04T04:07:46.465Z,4.64
2023-01-04T04:10:13.302Z,4.63
2023-01-04T04:12:40.084Z,4.63
2023-01-04T04:15:07.577Z,4.63
2023-01-04T04:17:34.351Z,4.62
2023-01-04T04:20:01.120Z,4.63
2023-01-04T04:22:27.890Z,4.64
2023-01-04T04:24:54.668Z,4.64
2023-01-04T04:27:21.454Z,4.63
2023-01-04T04:29:48.205Z,4.62
2023-01-04T04:32:14.985Z,4.59
2023-01-04T04:34:41.931Z,4.45
2023-01-04T04:37:08.951Z,4.58
2023-01-04T04:39:35.754Z,4.56
2023-01-04T04:42:02.507Z,4.57
2023-01-04T04:44:29.301Z,4.62
2023-01-04T04:46:56.083Z,4.61
2023-01-04T04:49:22.826Z,4.60
2023-01-04T04:51:49.747Z,4.61
2023-01-04T04:54:20.069Z,4.63
2023-01-04T04:56:48.511Z,4.58
2023-01-04T04:59:16.500Z,4.65
2023-01-04T05:01:43.370Z,4.61
2023-01-04T05:04:16.249Z,4.60
2023-01-04T05:06:44.652Z,4.63
2023-01-04T05:09:13.391Z,4.61
2023-01-04T05:11:59.585Z,4.65
2023-01-04T05:14:27.288Z,4.67
2023-01-04T05:16:54.330Z,4.72
2023-01-04T05:19:21.174Z,4.76
2023-01-04T05:21:47.915Z,4.77
2023-01-04T05:24:14.821Z,4.77
2023-01-04T05:26:41.647Z,4.77
2023-01-04T05:29:28.436Z,4.80
2023-01-04T05:31:55.425Z,4.81
2023-01-04T05:34:22.610Z,4.79
2023-01-04T05:36:49.440Z,4.40
2023-01-04T05:39:16.199Z,4.84
2023-01-04T05:42:01.468Z,4.88
2023-01-04T05:44:28.249Z,4.90
2023-01-04T05:46:55.078Z,4.93
2023-01-04T05:49:21.881Z,4.94
2023-01-04T05:51:48.696Z,5.00
2023-01-04T05:54:20.833Z,5.00
2023-01-04T05:56:48.167Z,5.03
2023-01-04T05:59:15.993Z,5.01
2023-01-04T06:01:42.878Z,4.92
2023-01-04T06:04:09.813Z,4.94
2023-01-04T06:06:36.627Z,4.97
2023-01-04T06:09:03.510Z,4.97
2023-01-04T06:11:30.384Z,5.01
2023-01-04T06:13:57.167Z,5.07
2023-01-04T06:16:24.177Z,4.84
2023-01-04T06:18:51.046Z,5.12
2023-01-04T06:21:17.970Z,5.13
2023-01-04T06:23:44.818Z,5.17
2023-01-04T06:26:11.731Z,5.20
2023-01-04T06:28:41.041Z,5.21
2023-01-04T06:31:10.443Z,5.20
2023-01-04T06:33:37.730Z,5.20
2023-01-04T06:36:06.062Z,5.15
2023-01-04T06:38:34.183Z,5.22
2023-01-04T06:41:01.328Z,5.22
2023-01-04T06:43:28.100Z,5.26
2023-01-04T06:45:54.895Z,5.28
2023-01-04T06:48:21.739Z,5.32
2023-01-04T06:50:48.563Z,5.33
2023-01-04T06:53:15.335Z,5.31
2023-01-04T06:55:44.921Z,5.40
2023-01-04T06:58:11.839Z,5.37
2023-01-04T07:00:38.662Z,5.32
2023-01-04T07:03:13.540Z,5.45
2023-01-04T07:05:41.988Z,5.51
2023-01-04T07:08:08.781Z,5.50
2023-01-04T07:10:35.699Z,5.51
2023-01-04T07:13:02.796Z,5.51
2023-01-04T07:15:38.926Z,5.54
2023-01-04T07:18:09.150Z,5.32
2023-01-04T07:20:37.695Z,5.58
2023-01-04T07:23:06.481Z,5.59
2023-01-04T07:25:33.381Z,5.60
2023-01-04T07:28:00.517Z,5.45
2023-01-04T07:30:27.423Z,5.63
2023-01-04T07:32:55.791Z,5.62
2023-01-04T07:35:23.555Z,5.55
2023-01-04T07:37:57.908Z,5.60
2023-01-04T07:40:25.939Z,5.58
2023-01-04T07:42:59.649Z,5.37
2023-01-04T07:45:27.525Z,5.48
2023-01-04T07:47:54.490Z,5.51
2023-01-04T07:50:21.340Z,5.55
2023-01-04T07:52:48.224Z,5.60
2023-01-04T07:55:15.057Z,5.65
2023-01-04T07:57:41.899Z,5.69
2023-01-04T08:00:09.548Z,5.72
2023-01-04T08:02:36.538Z,5.70
2023-01-04T08:05:03.649Z,5.72
2023-01-04T08:07:30.526Z,5.73
2023-01-04T08:09:57.363Z,5.72
2023-01-04T08:12:24.189Z,5.75
2023-01-04T08:14:51.051Z,5.71
2023-01-04T08:17:17.848Z,5.73
2023-01-04T08:19:46.664Z,5.74
2023-01-04T08:22:14.163Z,5.70
2023-01-04T08:24:40.989Z,5.76
2023-01-04T08:27:08.310Z,5.78
2023-01-04T08:29:35.584Z,5.81
2023-01-04T08:32:02.863Z,5.85
2023-01-04T08:34:31.091Z,5.89
2023-01-04T08:36:58.502Z,5.93
2023-01-04T08:39:25.378Z,5.94
2023-01-04T08:41:59.380Z,5.99
2023-01-04T08:44:30.152Z,6.03
2023-01-04T08:46:58.724Z,5.84
2023-01-04T08:49:25.670Z,6.09
2023-01-04T08:51:52.740Z,6.12
2023-01-04T08:54:19.588Z,6.03
2023-01-04T08:56:46.413Z,5.95
2023-01-04T08:59:13.790Z,5.98
2023-01-04T09:01:40.987Z,6.01
2023-01-04T09:04:08.525Z,6.05
2023-01-04T09:06:37.048Z,6.06
2023-01-04T09:09:04.018Z,6.10
2023-01-04T09:11:30.759Z,6.10
2023-01-04T09:14:07.156Z,6.12
2023-01-04T09:16:36.521Z,6.12
2023-01-04T09:19:04.250Z,6.25
2023-01-04T09:21:31.238Z,6.30
2023-01-04T09:23:58.928Z,6.34
2023-01-04T09:26:25.989Z,6.38
2023-01-04T09:28:55.961Z,6.41
2023-01-04T09:31:26.181Z,6.45
2023-01-04T09:36:41.515Z,6.50
2023-01-04T09:39:11.830Z,6.53
2023-01-04T09:41:58.346Z,6.55
2023-01-04T09:47:59.234Z,6.58
2023-01-04T09:50:33.609Z,6.64
2023-01-04T09:53:21.713Z,6.70
2023-01-04T09:55:53.269Z,6.73
2023-01-04T09:58:40.304Z,6.76
2023-01-04T10:01:34.100Z,6.75
2023-01-04T10:04:36.383Z,6.77
2023-01-04T10:07:05.424Z,6.80
2023-01-04T10:09:33.755Z,6.83
2023-01-04T10:12:16.536Z,6.85
2023-01-04T10:15:26.990Z,6.83
2023-01-04T10:21:43.425Z,6.94
2023-01-04T10:24:26.715Z,6.92
2023-01-04T10:27:06.296Z,6.97
2023-01-04T10:29:53.346Z,7.00
2023-01-04T10:32:44.816Z,7.03
2023-01-04T10:35:27.224Z,7.05
2023-01-04T10:38:04.226Z,7.00
2023-01-04T10:40:39.210Z,7.11
2023-01-04T10:43:30.569Z,7.14
2023-01-04T10:46:49.446Z,7.14
2023-01-04T10:49:43.155Z,7.11
2023-01-04T10:52:24.910Z,7.18
2023-01-04T10:55:05.209Z,7.18
2023-01-04T10:57:51.774Z,7.15
2023-01-04T11:00:28.874Z,7.24
2023-01-04T11:03:34.137Z,7.30
2023-01-04T11:06:17.388Z,7.37
2023-01-04T11:08:46.938Z,7.34
2023-01-04T11:11:26.148Z,7.33
2023-01-04T11:13:53.528Z,7.28
2023-01-04T11:16:20.382Z,7.37
2023-01-04T11:18:49.420Z,7.37
2023-01-04T11:21:21.279Z,7.61
2023-01-04T11:23:48.040Z,7.83
2023-01-04T11:26:29.294Z,7.93
2023-01-04T11:29:05.368Z,7.87
2023-01-04T11:31:44.207Z,7.94
2023-01-04T11:34:11.065Z,8.02
2023-01-04T11:36:43.839Z,8.08
2023-01-04T11:39:21.929Z,8.53
2023-01-04T11:42:03.394Z,8.59
2023-01-04T11:44:35.821Z,8.54
2023-01-04T11:47:17.982Z,8.36
2023-01-04T11:49:45.101Z,8.31
2023-01-04T11:52:33.962Z,8.39
2023-01-04T11:55:28.024Z,8.34
2023-01-04T11:58:17.026Z,8.40
2023-01-04T12:00:57.815Z,8.46
2023-01-04T12:03:39.169Z,8.55
2023-01-04T12:06:22.707Z,8.59
2023-01-04T12:08:49.834Z,8.62
2023-01-04T12:11:40.486Z,8.68
2023-01-04T12:14:27.220Z,8.64
2023-01-04T12:17:21.450Z,8.65
2023-01-04T12:19:50.685Z,8.65
2023-01-04T12:22:39.436Z,8.71
2023-01-04T12:25:43.699Z,8.78
2023-01-04T12:28:35.659Z,9.00
2023-01-04T12:31:21.684Z,9.01
2023-01-04T12:34:00.534Z,9.07
2023-01-04T12:36:39.550Z,9.04
2023-01-04T12:39:38.883Z,9.03
2023-01-04T12:42:19.439Z,8.99
2023-01-04T12:44:51.820Z,9.01
2023-01-04T12:47:37.108Z,9.06
2023-01-04T12:50:23.044Z,9.10
2023-01-04T12:55:44.168Z,9.24
2023-01-04T12:59:06.978Z,9.32
2023-01-04T13:01:29.159Z,9.37
2023-01-04T13:04:41.070Z,9.29
2023-01-04T13:07:37.345Z,9.31
2023-01-04T13:10:40.363Z,9.41
2023-01-04T13:13:12.585Z,9.42
2023-01-04T13:16:10.646Z,9.48
2023-01-04T13:18:54.682Z,9.56
2023-01-04T13:21:41.247Z,9.56
2023-01-04T13:24:27.915Z,9.73
2023-01-04T13:26:55.331Z,9.73
2023-01-04T13:29:27.453Z,9.88
2023-01-04T13:32:19.633Z,9.89
2023-01-04T13:35:18.617Z,10.01
2023-01-04T13:37:48.281Z,10.03
2023-01-04T13:40:35.754Z,10.00
2023-01-04T13:43:43.070Z,10.11
2023-01-04T13:46:20.333Z,10.32
2023-01-04T13:48:52.005Z,10.13
2023-01-04T13:51:23.786Z,10.07
2023-01-04T13:54:01.790Z,10.15
2023-01-04T13:56:34.976Z,10.14
2023-01-04T14:03:07.684Z,10.22
2023-01-04T14:05:35.976Z,10.27
2023-01-04T14:08:08.662Z,10.24
2023-01-04T14:10:36.370Z,10.22
2023-01-04T14:13:04.430Z,10.23
2023-01-04T14:15:33.717Z,10.33
2023-01-04T14:18:00.679Z,10.35
2023-01-04T14:20:27.292Z,10.39
2023-01-04T14:22:56.647Z,10.36
2023-01-04T14:25:37.990Z,10.39
2023-01-04T14:28:29.108Z,10.31
2023-01-04T14:31:03.665Z,10.30
2023-01-04T14:33:36.529Z,10.31
2023-01-04T14:36:30.063Z,10.46
2023-01-04T14:39:18.595Z,10.54
2023-01-04T14:41:54.619Z,10.51
2023-01-04T14:44:30.486Z,10.57
2023-01-04T14:47:00.684Z,10.44
2023-01-04T14:49:28.367Z,10.55
2023-01-04T14:51:58.205Z,10.80
2023-01-04T14:54:27.628Z,10.90
2023-01-04T14:56:56.597Z,10.81
2023-01-04T14:59:24.382Z,10.75
2023-01-04T15:01:53.248Z,10.77
2023-01-04T15:04:20.286Z,10.78
2023-01-04T15:07:00.286Z,10.69
2023-01-04T15:09:29.178Z,10.76
2023-01-04T15:11:56.351Z,10.81
2023-01-04T15:14:23.561Z,10.72
2023-01-04T15:16:50.836Z,10.73
2023-01-04T15:19:17.943Z,10.95
2023-01-04T15:21:44.856Z,10.94
2023-01-04T15:24:11.607Z,11.01
2023-01-04T15:26:39.728Z,11.02
2023-01-04T15:29:08.371Z,11.02
2023-01-04T15:31:39.809Z,11.06
2023-01-04T15:34:09.181Z,10.98
2023-01-04T15:36:38.609Z,11.12
2023-01-04T15:39:07.137Z,11.09
2023-01-04T15:41:53.281Z,11.04
2023-01-04T15:44:20.069Z,11.10
2023-01-04T15:46:47.105Z,11.20
2023-01-04T15:49:17.431Z,11.17
2023-01-04T15:51:45.877Z,11.12
2023-01-04T15:54:13.227Z,11.27
2023-01-04T15:56:40.133Z,11.22
2023-01-04T15:59:07.095Z,11.22
2023-01-04T16:01:33.960Z,11.12
2023-01-04T16:04:00.872Z,11.20
2023-01-04T16:06:27.641Z,11.19
2023-01-04T16:08:54.467Z,11.13
2023-01-04T16:11:23.471Z,11.23
2023-01-04T16:13:52.540Z,11.13
2023-01-04T16:16:23.016Z,11.22
2023-01-04T16:18:55.317Z,11.19
2023-01-04T16:21:28.475Z,11.17
2023-01-04T16:24:04.553Z,11.16
2023-01-04T16:26:36.708Z,11.24
2023-01-04T16:29:04.292Z,11.26
2023-01-04T16:31:35.856Z,11.29
2023-01-04T16:34:03.346Z,11.20
2023-01-04T16:36:30.564Z,11.17
2023-01-04T16:38:57.571Z,11.23
2023-01-04T16:41:25.026Z,11.23
2023-01-04T16:43:58.883Z,11.27
2023-01-04T16:46:28.819Z,11.21
2023-01-04T16:49:03.172Z,11.16
2023-01-04T16:51:33.427Z,11.26
2023-01-04T16:54:03.896Z,11.22
2023-01-04T16:56:31.735Z,11.18
2023-01-04T16:58:58.520Z,11.18
2023-01-04T17:01:28.607Z,11.23
2023-01-04T17:03:58.850Z,11.21
2023-01-04T17:06:29.548Z,11.24
2023-01-04T17:08:58.385Z,11.21
2023-01-04T17:14:19.294Z,11.21
2023-01-04T17:16:46.113Z,11.25
2023-01-04T17:19:12.948Z,11.28
2023-01-04T17:21:39.707Z,11.25
2023-01-04T17:24:06.954Z,11.31
2023-01-04T17:26:33.984Z,11.22
2023-01-04T17:29:01.976Z,11.31
2023-01-04T17:31:36.695Z,11.30
2023-01-04T17:34:03.670Z,11.31
2023-01-04T17:36:30.603Z,11.40
2023-01-04T17:39:00.514Z,11.43
2023-01-04T17:41:29.585Z,11.45
2023-01-04T17:44:02.952Z,11.41
2023-01-04T17:46:33.624Z,11.37
2023-01-04T17:49:22.336Z,11.41
2023-01-04T17:51:50.970Z,11.39
2023-01-04T17:54:18.497Z,11.38
2023-01-04T17:56:45.287Z,11.39
2023-01-04T17:59:12.498Z,11.45
2023-01-04T18:01:39.407Z,11.46
2023-01-04T18:04:06.219Z,11.47
2023-01-04T18:06:35.893Z,11.53
2023-01-04T18:09:06.550Z,11.48
2023-01-04T18:11:34.653Z,11.51
2023-01-04T18:14:04.186Z,11.52
2023-01-04T18:16:54.822Z,11.53
2023-01-04T18:19:27.952Z,11.68
2023-01-04T18:21:55.604Z,11.56
2023-01-04T18:24:40.721Z,11.65
2023-01-04T18:27:21.499Z,11.70
2023-01-04T18:29:50.457Z,11.68
2023-01-04T18:32:17.874Z,11.73
2023-01-04T18:34:45.378Z,11.67
2023-01-04T18:37:12.381Z,11.63
2023-01-04T18:39:39.308Z,11.61
2023-01-04T18:42:06.184Z,11.59
2023-01-04T18:44:34.827Z,11.65
2023-01-04T18:47:03.587Z,11.68
2023-01-04T18:49:30.992Z,11.72
2023-01-04T18:51:58.895Z,11.69
2023-01-04T18:54:25.813Z,11.72
2023-01-04T18:56:57.289Z,11.79
2023-01-04T18:59:28.276Z,11.84
2023-01-04T19:02:00.543Z,11.74
2023-01-04T19:04:29.744Z,11.73
2023-01-04T19:06:56.542Z,11.76
2023-01-04T19:09:23.470Z,11.80
2023-01-04T19:11:50.413Z,11.70
2023-01-04T19:14:17.804Z,11.71
2023-01-04T19:16:44.687Z,11.72
2023-01-04T19:19:11.570Z,11.79
2023-01-04T19:21:38.325Z,11.79
2023-01-04T19:24:05.259Z,11.79
2023-01-04T19:26:32.006Z,11.77
2023-01-04T19:28:58.867Z,11.72
2023-01-04T19:31:25.633Z,11.71
2023-01-04T19:33:52.450Z,11.73
2023-01-04T19:36:19.681Z,11.75
2023-01-04T19:38:46.802Z,11.68
2023-01-04T19:41:29.134Z,11.67
2023-01-04T19:43:58.208Z,11.67
2023-01-04T19:46:25.216Z,11.64
2023-01-04T19:48:52.132Z,11.69
2023-01-04T19:51:19.105Z,11.69
2023-01-04T19:53:46.051Z,11.66
2023-01-04T19:56:14.450Z,11.76
2023-01-04T19:58:41.332Z,11.69
2023-01-04T20:01:20.598Z,11.68
2023-01-04T20:03:48.486Z,11.70
2023-01-04T20:06:16.012Z,11.68
2023-01-04T20:08:43.519Z,11.67
2023-01-04T20:11:11.750Z,11.63
2023-01-04T20:13:39.417Z,11.60
2023-01-04T20:16:07.554Z,11.65
2023-01-04T20:18:35.198Z,11.66
2023-01-04T20:21:06.343Z,11.68
2023-01-04T20:23:33.104Z,11.74
2023-01-04T20:26:11.223Z,11.67
2023-01-04T20:28:39.081Z,11.66
2023-01-04T20:31:09.042Z,11.64
2023-01-04T20:33:35.935Z,11.47
2023-01-04T20:36:16.403Z,11.72
2023-01-04T20:38:45.694Z,11.72
2023-01-04T20:41:32.295Z,11.61
2023-01-04T20:44:00.080Z,11.65
2023-01-04T20:46:32.617Z,11.63
2023-01-04T20:49:00.912Z,11.66
2023-01-04T20:51:29.770Z,11.64
2023-01-04T20:53:59.754Z,11.67
2023-01-04T20:56:28.815Z,11.74
2023-01-04T20:58:55.975Z,11.58
2023-01-04T21:01:22.961Z,11.62
2023-01-04T21:03:50.294Z,11.56
2023-01-04T21:06:18.362Z,11.58
2023-01-04T21:08:45.860Z,11.60
2023-01-04T21:11:13.632Z,11.60
2023-01-04T21:13:40.533Z,11.61
2023-01-04T21:16:08.054Z,11.47
2023-01-04T21:18:34.926Z,11.59
2023-01-04T21:21:07.055Z,11.51
2023-01-04T21:23:34.198Z,11.54
2023-01-04T21:26:08.599Z,11.54
2023-01-04T21:28:36.076Z,11.51
2023-01-04T21:31:09.049Z,11.51
2023-01-04T21:33:35.947Z,11.60
2023-01-04T21:36:24.791Z,11.55
2023-01-04T21:38:54.590Z,11.54
2023-01-04T21:41:24.626Z,11.53
2023-01-04T21:43:54.853Z,11.58
2023-01-04T21:46:22.923Z,11.54
2023-01-04T21:48:55.456Z,11.53
2023-01-04T21:51:22.671Z,11.40
2023-01-04T21:53:49.494Z,11.52
2023-01-04T21:56:19.491Z,11.50
2023-01-04T21:58:46.413Z,11.53
2023-01-04T22:01:19.677Z,11.43
2023-01-04T22:03:46.628Z,11.37
2023-01-04T22:06:14.056Z,11.46
2023-01-04T22:08:46.221Z,11.42
2023-01-04T22:11:14.586Z,11.44
2023-01-04T22:13:41.613Z,11.42
2023-01-04T22:16:13.184Z,11.53
2023-01-04T22:18:40.375Z,11.45
2023-01-04T22:21:11.672Z,11.52
2023-01-04T22:23:38.506Z,11.51
2023-01-04T22:26:05.545Z,11.45
2023-01-04T22:28:36.755Z,11.53
2023-01-04T22:31:06.785Z,11.60
2023-01-04T22:33:35.443Z,11.37
2023-01-04T22:36:19.082Z,11.49
2023-01-04T22:38:48.288Z,11.50
2023-01-04T22:41:18.798Z,11.59
2023-01-04T22:43:46.074Z,11.39
2023-01-04T22:46:17.843Z,11.43
2023-01-04T22:48:45.473Z,11.26
2023-01-04T22:51:17.377Z,11.35
2023-01-04T22:53:44.856Z,11.45
2023-01-04T22:56:19.493Z,11.52
2023-01-04T22:58:54.592Z,11.52
2023-01-04T23:01:29.585Z,11.35
2023-01-04T23:03:58.612Z,11.47
2023-01-04T23:06:27.861Z,11.48
2023-01-04T23:09:04.512Z,11.54
2023-01-04T23:11:33.342Z,11.53
2023-01-04T23:14:03.707Z,11.50
2023-01-04T23:16:33.121Z,11.42
2023-01-04T23:19:01.648Z,11.44
2023-01-04T23:21:29.061Z,11.45
2023-01-04T23:23:55.952Z,11.49
2023-01-04T23:26:25.084Z,11.53
2023-01-04T23:28:52.494Z,11.58
2023-01-04T23:31:23.103Z,11.63
2023-01-04T23:34:00.155Z,11.58
2023-01-04T23:36:31.715Z,11.64
2023-01-04T23:39:03.854Z,11.69
2023-01-04T23:41:46.446Z,11.55
2023-01-04T23:44:26.436Z,11.56
2023-01-04T23:46:57.569Z,11.54
2023-01-04T23:49:26.143Z,11.60
2023-01-04T23:51:53.842Z,11.64
2023-01-04T23:54:21.512Z,11.67
2023-01-04T23:56:48.329Z,11.76
2023-01-04T23:59:15.185Z,11.70
